createdAt,value
2023-02-02T00:00:53.645Z,68.22
2023-02-02T00:03:20.667Z,58.10
2023-02-02T00:05:53.247Z,51.30
2023-02-02T00:08:21.869Z,46.45
2023-02-02T00:10:50.576Z,36.30
2023-02-02T00:13:17.694Z,40.70
2023-02-02T00:15:44.817Z,37.00
2023-02-02T00:18:11.662Z,38.38
2023-02-02T00:20:38.679Z,35.50
2023-02-02T00:23:05.774Z,33.58
2023-02-02T00:25:33.182Z,25.00
2023-02-02T00:27:59.989Z,25.88
2023-02-02T00:30:26.886Z,17.70
2023-02-02T00:32:54.066Z,18.05
2023-02-02T00:35:21.376Z,19.27
2023-02-02T00:37:48.293Z,27.98
2023-02-02T00:40:15.281Z,16.45
2023-02-02T00:42:43.475Z,16.33
2023-02-02T00:45:16.934Z,18.90
2023-02-02T00:47:48.950Z,14.70
2023-02-02T00:50:19.804Z,22.83
2023-02-02T00:52:48.059Z,20.73
2023-02-02T00:55:15.947Z,19.45
2023-02-02T00:57:44.448Z,14.05
2023-02-02T01:00:15.577Z,8.90
2023-02-02T01:02:42.737Z,13.30
2023-02-02T01:05:10.867Z,12.35
2023-02-02T01:07:38.922Z,11.65
2023-02-02T01:10:09.116Z,12.10
2023-02-02T01:12:35.987Z,13.93
2023-02-02T01:15:03.510Z,13.05
2023-02-02T01:17:30.834Z,13.65
2023-02-02T01:19:57.828Z,11.63
2023-02-02T01:22:25.298Z,12.27
2023-02-02T01:24:52.728Z,12.43
2023-02-02T01:27:19.982Z,17.52
2023-02-02T01:29:46.811Z,16.08
2023-02-02T01:32:13.841Z,21.35
2023-02-02T01:34:41.950Z,31.40
2023-02-02T01:37:10.076Z,23.58
2023-02-02T01:39:37.514Z,27.88
2023-02-02T01:42:11.230Z,27.95
2023-02-02T01:45:05.413Z,28.85
2023-02-02T01:47:40.110Z,18.67
2023-02-02T01:50:09.443Z,19.10
2023-02-02T01:52:37.637Z,24.25
2023-02-02T01:55:09.959Z,27.30
2023-02-02T01:57:42.110Z,26.42
2023-02-02T02:00:12.198Z,29.08
2023-02-02T02:02:41.048Z,25.58
2023-02-02T02:05:09.535Z,24.58
2023-02-02T02:07:36.997Z,33.38
2023-02-02T02:10:04.852Z,29.50
2023-02-02T02:12:32.117Z,28.80
2023-02-02T02:15:17.976Z,22.33
2023-02-02T02:18:18.681Z,17.52
2023-02-02T02:21:25.927Z,15.70
2023-02-02T02:24:27.695Z,13.63
2023-02-02T02:27:13.711Z,12.80
2023-02-02T02:30:03.784Z,24.38
2023-02-02T02:32:53.969Z,32.03
2023-02-02T02:35:32.626Z,19.48
2023-02-02T02:38:09.733Z,13.50
2023-02-02T02:40:49.604Z,12.20
2023-02-02T02:43:27.766Z,11.60
2023-02-02T02:45:55.263Z,11.32
2023-02-02T02:48:22.724Z,8.70
2023-02-02T02:50:50.141Z,8.35
2023-02-02T02:53:24.655Z,9.65
2023-02-02T02:56:18.795Z,13.80
2023-02-02T02:58:48.692Z,20.55
2023-02-02T03:01:38.453Z,15.98
2023-02-02T03:04:22.217Z,14.77
2023-02-02T03:07:05.335Z,15.38
2023-02-02T03:09:37.226Z,18.33
2023-02-02T03:12:04.743Z,26.15
2023-02-02T03:14:39.553Z,8.50
2023-02-02T03:17:06.774Z,8.50
2023-02-02T03:19:33.816Z,12.65
2023-02-02T03:22:01.060Z,13.35
2023-02-02T03:24:27.935Z,18.27
2023-02-02T03:26:55.083Z,15.75
2023-02-02T03:29:22.172Z,13.10
2023-02-02T03:31:49.965Z,14.38
2023-02-02T03:34:16.790Z,11.32
2023-02-02T03:36:43.724Z,12.02
2023-02-02T03:39:10.992Z,15.45
2023-02-02T03:41:37.824Z,14.10
2023-02-02T03:44:04.834Z,9.45
2023-02-02T03:46:33.686Z,9.43
2023-02-02T03:49:00.548Z,10.70
2023-02-02T03:51:27.460Z,5.57
2023-02-02T03:53:54.262Z,14.90
2023-02-02T03:56:21.003Z,12.63
2023-02-02T03:58:48.225Z,33.25
2023-02-02T04:01:15.791Z,25.58
2023-02-02T04:03:43.174Z,23.08
2023-02-02T04:06:10.267Z,17.48
2023-02-02T04:08:39.537Z,15.93
2023-02-02T04:11:10.104Z,17.88
2023-02-02T04:13:38.027Z,13.30
2023-02-02T04:16:05.280Z,14.73
2023-02-02T04:18:32.460Z,13.77
2023-02-02T04:21:00.381Z,15.98
2023-02-02T04:23:28.728Z,17.58
2023-02-02T04:25:55.962Z,14.77
2023-02-02T04:28:23.931Z,16.08
2023-02-02T04:30:52.398Z,12.73
2023-02-02T04:33:19.683Z,12.55
2023-02-02T04:35:46.506Z,12.38
2023-02-02T04:38:13.555Z,10.10
2023-02-02T04:40:45.563Z,11.05
2023-02-02T04:43:13.515Z,10.55
2023-02-02T04:45:40.674Z,13.57
2023-02-02T04:48:07.570Z,13.60
2023-02-02T04:50:34.485Z,23.40
2023-02-02T04:53:01.677Z,8.70
2023-02-02T04:55:28.527Z,12.60
2023-02-02T04:57:55.408Z,9.95
2023-02-02T05:00:22.498Z,12.65
2023-02-02T05:02:49.903Z,14.23
2023-02-02T05:05:17.170Z,16.65
2023-02-02T05:07:44.062Z,16.63
2023-02-02T05:10:11.573Z,9.15
2023-02-02T05:12:38.376Z,10.50
2023-02-02T05:15:05.807Z,9.38
2023-02-02T05:17:33.079Z,11.13
2023-02-02T05:20:00.222Z,12.65
2023-02-02T05:22:27.536Z,10.70
2023-02-02T05:24:54.533Z,13.13
2023-02-02T05:27:21.433Z,14.20
2023-02-02T05:29:48.927Z,13.10
2023-02-02T05:32:16.096Z,15.20
2023-02-02T05:34:43.004Z,19.40
2023-02-02T05:37:09.957Z,13.93
2023-02-02T05:39:36.853Z,21.55
2023-02-02T05:42:03.740Z,21.00
2023-02-02T05:44:31.308Z,22.50
2023-02-02T05:46:58.522Z,24.23
2023-02-02T05:49:25.661Z,28.63
2023-02-02T05:51:57.074Z,26.30
2023-02-02T05:54:24.702Z,21.25
2023-02-02T05:56:54.737Z,21.42
2023-02-02T05:59:21.787Z,21.70
2023-02-02T06:01:49.263Z,16.10
2023-02-02T06:04:16.223Z,14.38
2023-02-02T06:06:44.023Z,16.90
2023-02-02T06:09:11.028Z,21.45
2023-02-02T06:11:39.462Z,23.30
2023-02-02T06:14:06.880Z,16.42
2023-02-02T06:16:33.730Z,24.13
2023-02-02T06:19:00.898Z,20.83
2023-02-02T06:21:31.131Z,23.58
2023-02-02T06:23:59.467Z,21.00
2023-02-02T06:26:26.833Z,30.50
2023-02-02T06:28:55.206Z,26.70
2023-02-02T06:31:22.988Z,24.17
2023-02-02T06:33:57.983Z,19.45
2023-02-02T06:36:26.834Z,23.05
2023-02-02T06:38:56.485Z,25.08
2023-02-02T06:41:24.183Z,31.90
2023-02-02T06:43:51.882Z,41.05
2023-02-02T06:46:18.911Z,42.60
2023-02-02T06:48:46.101Z,40.25
2023-02-02T06:51:12.946Z,38.97
2023-02-02T06:53:40.143Z,27.27
2023-02-02T06:56:08.937Z,50.63
2023-02-02T06:58:35.772Z,28.50
2023-02-02T07:01:05.537Z,40.80
2023-02-02T07:03:32.982Z,35.45
2023-02-02T07:06:00.117Z,35.80
2023-02-02T07:08:27.005Z,29.52
2023-02-02T07:11:11.025Z,37.00
2023-02-02T07:13:40.659Z,60.28
2023-02-02T07:16:09.498Z,41.65
2023-02-02T07:18:39.652Z,42.97
2023-02-02T07:21:07.330Z,32.92
2023-02-02T07:23:34.566Z,32.72
2023-02-02T07:26:02.279Z,34.40
2023-02-02T07:28:29.584Z,39.45
2023-02-02T07:30:58.592Z,31.23
2023-02-02T07:33:25.949Z,36.30
2023-02-02T07:35:53.058Z,30.17
2023-02-02T07:38:19.890Z,30.08
2023-02-02T07:40:47.200Z,31.65
2023-02-02T07:43:14.243Z,29.10
2023-02-02T07:45:41.570Z,25.02
2023-02-02T07:48:09.153Z,30.52
2023-02-02T07:50:36.005Z,41.38
2023-02-02T07:53:02.817Z,35.55
2023-02-02T07:55:30.098Z,35.58
2023-02-02T07:57:59.289Z,33.47
2023-02-02T08:00:27.079Z,35.30
2023-02-02T08:02:54.173Z,43.35
2023-02-02T08:05:22.951Z,44.92
2023-02-02T08:07:50.150Z,53.13
2023-02-02T08:10:19.588Z,51.97
2023-02-02T08:12:46.502Z,50.88
2023-02-02T08:15:13.400Z,46.47
2023-02-02T08:17:40.307Z,46.20
2023-02-02T08:20:08.681Z,43.50
2023-02-02T08:22:35.850Z,42.83
2023-02-02T08:25:02.857Z,45.78
2023-02-02T08:27:29.769Z,37.78
2023-02-02T08:29:56.578Z,35.47
2023-02-02T08:32:23.419Z,39.47
2023-02-02T08:34:51.887Z,38.30
2023-02-02T08:37:18.964Z,27.13
2023-02-02T08:39:46.236Z,20.63
2023-02-02T08:42:13.036Z,22.98
2023-02-02T08:46:00.272Z,23.45
2023-02-02T08:47:30.137Z,21.80
2023-02-02T08:49:57.398Z,20.98
2023-02-02T08:52:25.859Z,19.00
2023-02-02T08:54:52.843Z,21.60
2023-02-02T08:57:19.972Z,15.52
2023-02-02T08:59:46.815Z,19.55
2023-02-02T09:02:14.237Z,15.20
2023-02-02T09:04:42.660Z,20.70
2023-02-02T09:07:09.537Z,17.75
2023-02-02T09:09:36.864Z,21.40
2023-02-02T09:12:04.338Z,18.48
2023-02-02T09:14:31.277Z,19.63
2023-02-02T09:16:58.172Z,20.08
2023-02-02T09:19:25.048Z,18.45
2023-02-02T09:21:52.544Z,15.75
2023-02-02T09:24:19.350Z,16.13
2023-02-02T09:26:46.556Z,17.15
2023-02-02T09:29:17.861Z,15.38
2023-02-02T09:31:44.973Z,13.25
2023-02-02T09:34:14.545Z,13.68
2023-02-02T09:36:42.608Z,11.80
2023-02-02T09:39:12.850Z,10.98
2023-02-02T09:41:40.449Z,15.15
2023-02-02T09:44:45.576Z,12.95
2023-02-02T09:47:33.808Z,13.77
2023-02-02T09:50:19.287Z,12.02
2023-02-02T09:53:13.923Z,11.40
2023-02-02T09:55:44.157Z,11.45
2023-02-02T09:58:14.366Z,10.88
2023-02-02T10:01:10.902Z,9.82
2023-02-02T10:03:40.245Z,17.58
2023-02-02T10:06:25.695Z,8.48
2023-02-02T10:09:26.568Z,10.35
2023-02-02T10:12:06.449Z,8.05
2023-02-02T10:14:45.169Z,6.93
2023-02-02T10:17:44.188Z,8.88
2023-02-02T10:20:37.368Z,9.35
2023-02-02T10:23:22.116Z,10.45
2023-02-02T10:26:07.695Z,8.38
2023-02-02T10:28:43.577Z,8.65
2023-02-02T10:31:50.171Z,8.63
2023-02-02T10:34:41.954Z,5.47
2023-02-02T10:37:26.688Z,6.90
2023-02-02T10:39:59.602Z,6.13
2023-02-02T10:42:38.353Z,8.57
2023-02-02T10:45:20.737Z,6.93
2023-02-02T10:47:47.860Z,8.13
2023-02-02T10:50:19.554Z,11.63
2023-02-02T10:52:59.017Z,11.18
2023-02-02T10:55:42.605Z,10.52
2023-02-02T10:58:15.711Z,9.35
2023-02-02T11:00:47.960Z,6.53
2023-02-02T11:03:17.627Z,6.53
2023-02-02T11:06:02.819Z,8.27
2023-02-02T11:08:44.202Z,6.25
2023-02-02T11:11:24.447Z,5.72
2023-02-02T11:14:15.191Z,5.53
2023-02-02T11:16:45.222Z,6.55
2023-02-02T11:19:19.753Z,6.15
2023-02-02T11:21:56.413Z,5.38
2023-02-02T11:24:28.924Z,5.57
2023-02-02T11:27:06.938Z,9.07
2023-02-02T11:29:42.108Z,8.05
2023-02-02T11:32:29.678Z,7.20
2023-02-02T11:35:02.891Z,5.78
2023-02-02T11:37:31.024Z,6.18
2023-02-02T11:40:31.515Z,6.43
2023-02-02T11:43:02.501Z,6.93
2023-02-02T11:45:40.613Z,8.52
2023-02-02T11:48:20.875Z,9.45
2023-02-02T11:50:59.315Z,7.18
2023-02-02T11:53:31.496Z,6.20
2023-02-02T11:56:11.520Z,6.13
2023-02-02T11:58:51.663Z,6.45
2023-02-02T12:01:26.269Z,8.00
2023-02-02T12:04:01.886Z,6.85
2023-02-02T12:06:37.658Z,6.55
2023-02-02T12:09:12.398Z,8.45
2023-02-02T12:12:06.720Z,8.85
2023-02-02T12:14:55.036Z,8.68
2023-02-02T12:17:45.361Z,17.15
2023-02-02T12:20:30.721Z,13.50
2023-02-02T12:23:16.592Z,10.20
2023-02-02T12:26:02.516Z,9.10
2023-02-02T12:28:49.337Z,7.88
2023-02-02T12:31:31.215Z,8.27
2023-02-02T12:34:05.063Z,17.17
2023-02-02T12:37:04.390Z,9.90
2023-02-02T12:39:42.964Z,11.85
2023-02-02T12:42:39.296Z,7.95
2023-02-02T12:45:21.555Z,8.02
2023-02-02T12:48:10.164Z,6.85
2023-02-02T12:51:15.700Z,7.60
2023-02-02T12:54:32.757Z,5.63
2023-02-02T12:57:18.919Z,8.75
2023-02-02T12:59:50.789Z,6.97
2023-02-02T13:02:42.054Z,6.95
2023-02-02T13:05:28.225Z,6.60
2023-02-02T13:08:16.693Z,5.93
2023-02-02T13:10:47.753Z,5.70
2023-02-02T13:13:18.754Z,6.10
2023-02-02T13:16:04.830Z,5.00
2023-02-02T13:18:56.903Z,6.50
2023-02-02T13:21:24.941Z,4.25
2023-02-02T13:23:56.703Z,5.90
2023-02-02T13:26:28.558Z,4.63
2023-02-02T13:28:55.390Z,7.07
2023-02-02T13:31:34.608Z,5.53
2023-02-02T13:34:26.395Z,5.00
2023-02-02T13:37:04.109Z,4.65
2023-02-02T13:39:40.676Z,4.32
2023-02-02T13:42:16.959Z,3.03
2023-02-02T13:44:51.699Z,4.18
2023-02-02T13:47:48.451Z,4.43
2023-02-02T13:50:17.190Z,3.25
2023-02-02T13:53:08.103Z,4.25
2023-02-02T13:55:55.092Z,5.47
2023-02-02T13:58:36.142Z,5.95
2023-02-02T14:01:07.277Z,3.65
2023-02-02T14:04:04.947Z,3.92
2023-02-02T14:06:58.310Z,15.85
2023-02-02T14:09:31.489Z,5.88
2023-02-02T14:12:02.912Z,15.10
2023-02-02T14:14:35.097Z,5.95
2023-02-02T14:17:04.468Z,4.40
2023-02-02T14:19:34.416Z,4.53
2023-02-02T14:22:05.247Z,6.57
2023-02-02T14:24:35.423Z,7.03
2023-02-02T14:27:02.337Z,4.13
2023-02-02T14:29:32.027Z,6.25
2023-02-02T14:32:34.681Z,3.75
2023-02-02T14:35:14.501Z,5.60
2023-02-02T14:38:21.744Z,3.90
2023-02-02T14:40:51.646Z,3.92
2023-02-02T14:43:45.768Z,3.08
2023-02-02T14:46:15.814Z,5.22
2023-02-02T14:48:48.841Z,5.82
2023-02-02T14:51:22.025Z,7.63
2023-02-02T14:53:50.727Z,8.70
2023-02-02T14:56:18.168Z,5.47
2023-02-02T14:58:52.385Z,8.57
2023-02-02T15:01:25.366Z,4.55
2023-02-02T15:04:11.345Z,6.03
2023-02-02T15:06:42.425Z,23.65
2023-02-02T15:09:26.387Z,6.82
2023-02-02T15:12:01.007Z,11.02
2023-02-02T15:15:23.133Z,7.15
2023-02-02T15:17:55.865Z,5.70
2023-02-02T15:20:43.017Z,7.40
2023-02-02T15:23:33.071Z,7.40
2023-02-02T15:26:08.200Z,6.68
2023-02-02T15:28:44.556Z,5.68
2023-02-02T15:31:11.510Z,6.43
2023-02-02T15:33:43.913Z,8.20
2023-02-02T15:36:18.948Z,10.35
2023-02-02T15:38:50.403Z,8.30
2023-02-02T15:41:22.343Z,10.55
2023-02-02T15:43:49.127Z,8.52
2023-02-02T15:46:26.780Z,7.40
2023-02-02T15:49:32.868Z,9.52
2023-02-02T15:52:17.167Z,6.82
2023-02-02T15:55:19.931Z,6.45
2023-02-02T15:57:46.871Z,8.80
2023-02-02T16:00:34.787Z,9.38
2023-02-02T16:03:07.201Z,13.23
2023-02-02T16:05:36.835Z,12.25
2023-02-02T16:08:19.519Z,11.40
2023-02-02T16:10:49.432Z,8.65
2023-02-02T16:13:27.732Z,6.65
2023-02-02T16:16:07.602Z,5.53
2023-02-02T16:18:35.591Z,8.05
2023-02-02T16:21:09.812Z,5.70
2023-02-02T16:23:38.365Z,7.03
2023-02-02T16:26:06.808Z,6.38
2023-02-02T16:28:35.838Z,8.88
2023-02-02T16:31:03.639Z,13.18
2023-02-02T16:33:38.156Z,8.55
2023-02-02T16:36:25.522Z,9.23
2023-02-02T16:38:54.612Z,11.55
2023-02-02T16:41:36.040Z,11.40
2023-02-02T16:44:30.786Z,10.35
2023-02-02T16:46:59.781Z,13.63
2023-02-02T16:49:27.535Z,14.55
2023-02-02T16:52:09.962Z,18.40
2023-02-02T16:54:38.203Z,16.90
2023-02-02T16:57:05.720Z,20.98
2023-02-02T16:59:35.820Z,19.65
2023-02-02T17:02:28.827Z,17.08
2023-02-02T17:05:19.938Z,28.17
2023-02-02T17:08:00.487Z,18.70
2023-02-02T17:10:42.308Z,17.55
2023-02-02T17:13:30.900Z,22.95
2023-02-02T17:15:58.799Z,20.50
2023-02-02T17:18:26.543Z,21.35
2023-02-02T17:21:03.747Z,17.58
2023-02-02T17:23:32.480Z,20.80
2023-02-02T17:25:59.465Z,17.70
2023-02-02T17:28:27.736Z,14.65
2023-02-02T17:31:00.213Z,20.02
2023-02-02T17:33:27.636Z,14.30
2023-02-02T17:35:56.331Z,10.82
2023-02-02T17:38:24.944Z,8.18
2023-02-02T17:40:52.858Z,10.57
2023-02-02T17:43:20.378Z,11.45
2023-02-02T17:45:47.558Z,13.52
2023-02-02T17:48:14.823Z,12.88
2023-02-02T17:50:43.258Z,9.60
2023-02-02T17:53:12.610Z,11.20
2023-02-02T17:55:42.106Z,7.65
2023-02-02T17:58:10.621Z,9.57
2023-02-02T18:00:39.330Z,6.78
2023-02-02T18:03:26.459Z,13.07
2023-02-02T18:05:53.477Z,11.65
2023-02-02T18:08:20.295Z,5.65
2023-02-02T18:10:47.111Z,6.70
2023-02-02T18:13:16.177Z,9.75
2023-02-02T18:15:43.904Z,10.05
2023-02-02T18:18:12.523Z,11.70
2023-02-02T18:20:43.648Z,11.20
2023-02-02T18:23:11.380Z,7.97
2023-02-02T18:25:39.612Z,7.85
2023-02-02T18:28:07.675Z,7.97
2023-02-02T18:30:34.715Z,10.90
2023-02-02T18:33:01.625Z,11.80
2023-02-02T18:35:28.876Z,11.32
2023-02-02T18:37:55.661Z,8.25
2023-02-02T18:40:22.473Z,9.13
2023-02-02T18:42:49.300Z,9.52
2023-02-02T18:45:16.436Z,8.52
2023-02-02T18:47:43.196Z,6.75
2023-02-02T18:50:10.606Z,6.07
2023-02-02T18:52:37.357Z,4.63
2023-02-02T18:55:04.285Z,5.22
2023-02-02T18:57:31.155Z,4.03
2023-02-02T18:59:57.992Z,4.53
2023-02-02T19:02:25.989Z,4.05
2023-02-02T19:05:11.430Z,3.92
2023-02-02T19:07:57.163Z,4.95
2023-02-02T19:13:05.478Z,13.32
2023-02-02T19:15:39.342Z,9.68
2023-02-02T19:18:15.267Z,10.80
2023-02-02T19:20:43.366Z,8.50
2023-02-02T19:23:16.625Z,9.73
2023-02-02T19:25:50.751Z,11.32
2023-02-02T19:28:29.057Z,6.85
2023-02-02T19:30:58.591Z,10.60
2023-02-02T19:33:52.848Z,12.20
2023-02-02T19:36:22.568Z,14.18
2023-02-02T19:38:55.359Z,14.88
2023-02-02T19:41:24.736Z,9.98
2023-02-02T19:43:55.958Z,13.30
2023-02-02T19:46:25.760Z,8.68
2023-02-02T19:49:04.059Z,11.55
2023-02-02T19:51:33.906Z,15.35
2023-02-02T19:54:01.628Z,10.25
2023-02-02T19:56:37.843Z,7.72
2023-02-02T19:59:10.200Z,9.32
2023-02-02T20:01:37.697Z,8.23
2023-02-02T20:04:18.616Z,8.85
2023-02-02T20:06:58.434Z,7.43
2023-02-02T20:09:33.722Z,8.68
2023-02-02T20:12:01.135Z,6.63
2023-02-02T20:14:34.545Z,4.40
2023-02-02T20:17:07.071Z,5.72
2023-02-02T20:19:40.251Z,1.23
2023-02-02T20:22:28.656Z,3.88
2023-02-02T20:25:02.415Z,3.35
2023-02-02T20:27:33.547Z,5.35
2023-02-02T20:30:19.763Z,4.13
2023-02-02T20:32:55.341Z,4.57
2023-02-02T20:35:37.183Z,3.35
2023-02-02T20:38:21.715Z,3.83
2023-02-02T20:40:48.605Z,7.85
2023-02-02T20:43:15.996Z,5.65
2023-02-02T20:45:42.991Z,3.20
2023-02-02T20:48:12.241Z,1.70
2023-02-02T20:50:40.359Z,3.38
2023-02-02T20:53:07.975Z,3.53
2023-02-02T20:55:37.519Z,3.75
2023-02-02T20:58:05.348Z,4.93
2023-02-02T21:00:32.333Z,3.67
2023-02-02T21:02:59.184Z,4.10
2023-02-02T21:05:26.482Z,3.65
2023-02-02T21:07:55.089Z,4.53
2023-02-02T21:10:24.814Z,4.18
2023-02-02T21:12:52.248Z,3.00
2023-02-02T21:15:19.368Z,5.43
2023-02-02T21:17:46.753Z,3.35
2023-02-02T21:20:14.901Z,4.43
2023-02-02T21:22:42.135Z,8.70
2023-02-02T21:25:10.106Z,3.25
2023-02-02T21:27:41.117Z,2.17
2023-02-02T21:30:11.180Z,4.65
2023-02-02T21:32:38.257Z,2.75
2023-02-02T21:35:06.835Z,3.63
2023-02-02T21:37:37.380Z,2.17
2023-02-02T21:40:13.599Z,1.55
2023-02-02T21:42:46.984Z,2.00
2023-02-02T21:45:34.985Z,2.22
2023-02-02T21:48:19.761Z,2.22
2023-02-02T21:50:50.130Z,2.05
2023-02-02T21:53:16.980Z,2.20
2023-02-02T21:55:46.504Z,2.22
2023-02-02T21:58:27.743Z,2.72
2023-02-02T22:00:59.672Z,2.13
2023-02-02T22:03:37.115Z,2.05
2023-02-02T22:06:10.394Z,3.10
2023-02-02T22:08:37.349Z,3.70
2023-02-02T22:11:04.697Z,8.50
2023-02-02T22:13:35.544Z,3.28
2023-02-02T22:16:03.382Z,3.67
2023-02-02T22:18:32.535Z,3.85
2023-02-02T22:21:00.049Z,4.25
2023-02-02T22:23:30.086Z,4.07
2023-02-02T22:25:58.576Z,3.60
2023-02-02T22:28:32.531Z,4.60
2023-02-02T22:31:00.664Z,4.35
2023-02-02T22:33:27.731Z,3.80
2023-02-02T22:35:54.563Z,2.40
2023-02-02T22:38:23.818Z,1.90
2023-02-02T22:40:51.913Z,2.13
2023-02-02T22:43:20.044Z,2.83
2023-02-02T22:45:47.722Z,2.92
2023-02-02T22:48:15.452Z,1.92
2023-02-02T22:50:42.981Z,2.03
2023-02-02T22:53:10.257Z,2.72
2023-02-02T22:55:37.059Z,1.65
2023-02-02T22:58:04.027Z,2.58
2023-02-02T23:00:33.245Z,1.77
2023-02-02T23:03:00.874Z,1.40
2023-02-02T23:05:28.224Z,1.25
2023-02-02T23:07:56.569Z,1.88
2023-02-02T23:10:26.697Z,1.90
2023-02-02T23:12:55.651Z,3.50
2023-02-02T23:15:22.876Z,1.92
2023-02-02T23:17:50.083Z,2.85
2023-02-02T23:20:18.087Z,1.70
2023-02-02T23:22:45.563Z,2.20
2023-02-02T23:25:13.567Z,1.40
2023-02-02T23:27:40.825Z,1.92
2023-02-02T23:30:12.442Z,1.83
2023-02-02T23:32:39.280Z,1.27
2023-02-02T23:35:10.044Z,1.75
2023-02-02T23:37:37.812Z,1.83
2023-02-02T23:40:05.072Z,2.03
2023-02-02T23:42:32.222Z,1.88
2023-02-02T23:44:59.048Z,2.70
2023-02-02T23:47:26.195Z,2.30
2023-02-02T23:49:53.135Z,1.98
2023-02-02T23:52:20.042Z,1.40
2023-02-02T23:54:46.944Z,1.95
2023-02-02T23:57:13.700Z,0.80
2023-02-02T23:59:40.582Z,1.55
